sensor_id;sensor_type;location;lat;lon;timestamp;P1;durP1;ratioP1;P2;durP2;ratioP2
47882;SDS011;37739;50.350;7.578;2024-02-28T00:01:47;35.10;;;27.30;;
47882;SDS011;37739;50.350;7.578;2024-02-28T00:04:16;35.93;;;27.87;;
47882;SDS011;37739;50.350;7.578;2024-02-28T00:06:44;31.60;;;25.70;;
47882;SDS011;37739;50.350;7.578;2024-02-28T00:09:11;36.27;;;26.70;;
47882;SDS011;37739;50.350;7.578;2024-02-28T00:11:46;37.93;;;26.20;;
47882;SDS011;37739;50.350;7.578;2024-02-28T00:14:14;33.50;;;26.17;;
47882;SDS011;37739;50.350;7.578;2024-02-28T00:16:45;33.37;;;26.00;;
47882;SDS011;37739;50.350;7.578;2024-02-28T00:19:11;37.57;;;27.17;;
47882;SDS011;37739;50.350;7.578;2024-02-28T00:21:39;29.90;;;23.37;;
47882;SDS011;37739;50.350;7.578;2024-02-28T00:24:07;34.83;;;26.43;;
47882;SDS011;37739;50.350;7.578;2024-02-28T00:26:35;30.40;;;25.10;;
47882;SDS011;37739;50.350;7.578;2024-02-28T00:29:05;32.40;;;26.50;;
47882;SDS011;37739;50.350;7.578;2024-02-28T00:31:35;38.30;;;27.90;;
47882;SDS011;37739;50.350;7.578;2024-02-28T00:34:01;41.70;;;29.13;;
47882;SDS011;37739;50.350;7.578;2024-02-28T00:36:26;31.47;;;24.57;;
47882;SDS011;37739;50.350;7.578;2024-02-28T00:38:54;35.97;;;26.37;;
47882;SDS011;37739;50.350;7.578;2024-02-28T00:41:21;25.00;;;19.47;;
47882;SDS011;37739;50.350;7.578;2024-02-28T00:43:49;30.13;;;21.80;;
47882;SDS011;37739;50.350;7.578;2024-02-28T00:46:16;30.47;;;23.90;;
47882;SDS011;37739;50.350;7.578;2024-02-28T00:48:44;37.43;;;26.40;;
47882;SDS011;37739;50.350;7.578;2024-02-28T00:51:09;35.87;;;26.50;;
47882;SDS011;37739;50.350;7.578;2024-02-28T00:53:37;34.13;;;25.67;;
47882;SDS011;37739;50.350;7.578;2024-02-28T00:56:03;35.83;;;25.93;;
47882;SDS011;37739;50.350;7.578;2024-02-28T00:58:29;37.20;;;27.80;;
47882;SDS011;37739;50.350;7.578;2024-02-28T01:00:57;33.07;;;23.97;;
47882;SDS011;37739;50.350;7.578;2024-02-28T01:03:24;33.47;;;24.60;;
47882;SDS011;37739;50.350;7.578;2024-02-28T01:05:50;40.87;;;30.10;;
47882;SDS011;37739;50.350;7.578;2024-02-28T01:08:18;34.53;;;24.40;;
47882;SDS011;37739;50.350;7.578;2024-02-28T01:10:43;38.27;;;25.67;;
47882;SDS011;37739;50.350;7.578;2024-02-28T01:13:13;33.80;;;23.67;;
47882;SDS011;37739;50.350;7.578;2024-02-28T01:15:41;32.63;;;23.57;;
47882;SDS011;37739;50.350;7.578;2024-02-28T01:18:09;33.50;;;25.10;;
47882;SDS011;37739;50.350;7.578;2024-02-28T01:20:37;30.37;;;22.70;;
47882;SDS011;37739;50.350;7.578;2024-02-28T01:23:02;32.70;;;23.90;;
47882;SDS011;37739;50.350;7.578;2024-02-28T01:25:30;31.40;;;24.03;;
47882;SDS011;37739;50.350;7.578;2024-02-28T01:27:55;31.57;;;24.53;;
47882;SDS011;37739;50.350;7.578;2024-02-28T01:30:22;31.60;;;23.67;;
47882;SDS011;37739;50.350;7.578;2024-02-28T01:32:50;36.50;;;25.67;;
47882;SDS011;37739;50.350;7.578;2024-02-28T01:35:15;29.73;;;22.30;;
47882;SDS011;37739;50.350;7.578;2024-02-28T01:37:41;24.40;;;18.53;;
47882;SDS011;37739;50.350;7.578;2024-02-28T01:40:06;29.90;;;23.57;;
47882;SDS011;37739;50.350;7.578;2024-02-28T01:42:32;31.03;;;22.17;;
47882;SDS011;37739;50.350;7.578;2024-02-28T01:44:58;36.80;;;26.40;;
47882;SDS011;37739;50.350;7.578;2024-02-28T01:47:23;36.03;;;26.57;;
47882;SDS011;37739;50.350;7.578;2024-02-28T01:49:48;33.10;;;25.70;;
47882;SDS011;37739;50.350;7.578;2024-02-28T01:52:15;37.83;;;25.77;;
47882;SDS011;37739;50.350;7.578;2024-02-28T01:54:42;37.60;;;26.30;;
47882;SDS011;37739;50.350;7.578;2024-02-28T01:57:08;34.87;;;26.27;;
47882;SDS011;37739;50.350;7.578;2024-02-28T01:59:36;39.00;;;28.90;;
47882;SDS011;37739;50.350;7.578;2024-02-28T02:02:02;40.67;;;29.10;;
47882;SDS011;37739;50.350;7.578;2024-02-28T02:04:33;38.10;;;27.10;;
47882;SDS011;37739;50.350;7.578;2024-02-28T02:07:00;36.40;;;26.60;;
47882;SDS011;37739;50.350;7.578;2024-02-28T02:09:28;35.33;;;26.07;;
47882;SDS011;37739;50.350;7.578;2024-02-28T02:11:56;35.47;;;27.77;;
47882;SDS011;37739;50.350;7.578;2024-02-28T02:14:21;33.27;;;22.10;;
47882;SDS011;37739;50.350;7.578;2024-02-28T02:16:48;35.90;;;23.53;;
47882;SDS011;37739;50.350;7.578;2024-02-28T02:19:16;32.77;;;24.23;;
47882;SDS011;37739;50.350;7.578;2024-02-28T02:21:43;43.43;;;30.90;;
47882;SDS011;37739;50.350;7.578;2024-02-28T02:24:17;38.63;;;27.63;;
47882;SDS011;37739;50.350;7.578;2024-02-28T02:26:43;37.00;;;26.10;;
47882;SDS011;37739;50.350;7.578;2024-02-28T02:29:13;33.10;;;23.93;;
47882;SDS011;37739;50.350;7.578;2024-02-28T02:31:41;40.80;;;27.90;;
47882;SDS011;37739;50.350;7.578;2024-02-28T02:34:07;35.40;;;24.37;;
47882;SDS011;37739;50.350;7.578;2024-02-28T02:36:35;33.83;;;25.87;;
47882;SDS011;37739;50.350;7.578;2024-02-28T02:39:02;35.70;;;26.20;;
47882;SDS011;37739;50.350;7.578;2024-02-28T02:41:28;32.43;;;24.10;;
47882;SDS011;37739;50.350;7.578;2024-02-28T02:43:55;35.73;;;24.50;;
47882;SDS011;37739;50.350;7.578;2024-02-28T02:46:23;43.93;;;28.03;;
47882;SDS011;37739;50.350;7.578;2024-02-28T02:48:51;30.47;;;22.37;;
47882;SDS011;37739;50.350;7.578;2024-02-28T02:51:19;38.80;;;27.60;;
47882;SDS011;37739;50.350;7.578;2024-02-28T02:53:47;34.67;;;25.30;;
47882;SDS011;37739;50.350;7.578;2024-02-28T02:56:12;38.90;;;25.70;;
47882;SDS011;37739;50.350;7.578;2024-02-28T02:58:39;28.40;;;20.53;;
47882;SDS011;37739;50.350;7.578;2024-02-28T03:01:05;37.83;;;27.43;;
47882;SDS011;37739;50.350;7.578;2024-02-28T03:03:33;36.57;;;27.80;;
47882;SDS011;37739;50.350;7.578;2024-02-28T03:06:02;36.07;;;25.80;;
47882;SDS011;37739;50.350;7.578;2024-02-28T03:08:29;42.43;;;29.73;;
47882;SDS011;37739;50.350;7.578;2024-02-28T03:10:55;26.40;;;20.40;;
47882;SDS011;37739;50.350;7.578;2024-02-28T03:13:20;32.80;;;23.50;;
47882;SDS011;37739;50.350;7.578;2024-02-28T03:15:48;38.37;;;26.10;;
47882;SDS011;37739;50.350;7.578;2024-02-28T03:18:13;38.23;;;25.43;;
47882;SDS011;37739;50.350;7.578;2024-02-28T03:20:38;34.03;;;23.27;;
47882;SDS011;37739;50.350;7.578;2024-02-28T03:23:06;28.20;;;21.70;;
47882;SDS011;37739;50.350;7.578;2024-02-28T03:25:34;32.00;;;24.17;;
47882;SDS011;37739;50.350;7.578;2024-02-28T03:27:59;35.07;;;25.53;;
47882;SDS011;37739;50.350;7.578;2024-02-28T03:30:26;29.17;;;21.10;;
47882;SDS011;37739;50.350;7.578;2024-02-28T03:32:53;38.07;;;26.10;;
47882;SDS011;37739;50.350;7.578;2024-02-28T03:35:19;31.03;;;21.83;;
47882;SDS011;37739;50.350;7.578;2024-02-28T03:37:44;39.53;;;26.97;;
47882;SDS011;37739;50.350;7.578;2024-02-28T03:40:10;37.20;;;26.87;;
47882;SDS011;37739;50.350;7.578;2024-02-28T03:42:36;36.60;;;25.40;;
47882;SDS011;37739;50.350;7.578;2024-02-28T03:45:01;35.40;;;25.40;;
47882;SDS011;37739;50.350;7.578;2024-02-28T03:47:27;38.00;;;25.73;;
47882;SDS011;37739;50.350;7.578;2024-02-28T03:49:55;37.83;;;27.43;;
47882;SDS011;37739;50.350;7.578;2024-02-28T03:52:22;32.87;;;24.67;;
47882;SDS011;37739;50.350;7.578;2024-02-28T03:54:50;38.17;;;27.50;;
47882;SDS011;37739;50.350;7.578;2024-02-28T03:57:18;35.13;;;24.47;;
47882;SDS011;37739;50.350;7.578;2024-02-28T03:59:45;42.60;;;29.43;;
47882;SDS011;37739;50.350;7.578;2024-02-28T04:02:13;36.83;;;27.20;;
47882;SDS011;37739;50.350;7.578;2024-02-28T04:04:40;35.13;;;25.20;;
47882;SDS011;37739;50.350;7.578;2024-02-28T04:07:08;38.80;;;25.23;;
47882;SDS011;37739;50.350;7.578;2024-02-28T04:09:36;36.70;;;27.70;;
47882;SDS011;37739;50.350;7.578;2024-02-28T04:12:01;36.90;;;25.93;;
47882;SDS011;37739;50.350;7.578;2024-02-28T04:14:26;34.23;;;23.63;;
47882;SDS011;37739;50.350;7.578;2024-02-28T04:16:52;29.00;;;21.47;;
47882;SDS011;37739;50.350;7.578;2024-02-28T04:19:17;34.93;;;24.00;;
47882;SDS011;37739;50.350;7.578;2024-02-28T04:21:42;37.07;;;27.00;;
47882;SDS011;37739;50.350;7.578;2024-02-28T04:24:10;33.77;;;23.33;;
47882;SDS011;37739;50.350;7.578;2024-02-28T04:26:35;36.70;;;24.60;;
47882;SDS011;37739;50.350;7.578;2024-02-28T04:29:03;29.30;;;20.97;;
47882;SDS011;37739;50.350;7.578;2024-02-28T04:31:32;34.07;;;23.90;;
47882;SDS011;37739;50.350;7.578;2024-02-28T04:33:58;29.00;;;21.73;;
47882;SDS011;37739;50.350;7.578;2024-02-28T04:36:25;33.13;;;23.73;;
47882;SDS011;37739;50.350;7.578;2024-02-28T04:38:50;38.63;;;27.10;;
47882;SDS011;37739;50.350;7.578;2024-02-28T04:41:16;40.70;;;25.90;;
47882;SDS011;37739;50.350;7.578;2024-02-28T04:43:43;33.80;;;24.10;;
47882;SDS011;37739;50.350;7.578;2024-02-28T04:46:11;36.03;;;25.20;;
47882;SDS011;37739;50.350;7.578;2024-02-28T04:48:36;35.23;;;22.57;;
47882;SDS011;37739;50.350;7.578;2024-02-28T04:51:02;33.57;;;23.90;;
47882;SDS011;37739;50.350;7.578;2024-02-28T04:53:27;32.30;;;22.97;;
47882;SDS011;37739;50.350;7.578;2024-02-28T04:55:53;33.70;;;24.90;;
47882;SDS011;37739;50.350;7.578;2024-02-28T04:58:20;35.73;;;23.00;;
47882;SDS011;37739;50.350;7.578;2024-02-28T05:00:48;37.33;;;23.97;;
47882;SDS011;37739;50.350;7.578;2024-02-28T05:03:13;34.60;;;25.30;;
47882;SDS011;37739;50.350;7.578;2024-02-28T05:05:41;33.80;;;23.20;;
47882;SDS011;37739;50.350;7.578;2024-02-28T05:08:08;33.03;;;23.97;;
47882;SDS011;37739;50.350;7.578;2024-02-28T05:10:34;34.50;;;24.70;;
47882;SDS011;37739;50.350;7.578;2024-02-28T05:12:59;34.07;;;25.37;;
47882;SDS011;37739;50.350;7.578;2024-02-28T05:15:24;30.77;;;22.87;;
47882;SDS011;37739;50.350;7.578;2024-02-28T05:17:50;40.53;;;29.50;;
47882;SDS011;37739;50.350;7.578;2024-02-28T05:20:17;40.07;;;27.87;;
47882;SDS011;37739;50.350;7.578;2024-02-28T05:22:42;34.07;;;25.00;;
47882;SDS011;37739;50.350;7.578;2024-02-28T05:25:07;36.93;;;24.67;;
47882;SDS011;37739;50.350;7.578;2024-02-28T05:27:35;36.83;;;25.63;;
47882;SDS011;37739;50.350;7.578;2024-02-28T05:30:01;31.73;;;22.97;;
47882;SDS011;37739;50.350;7.578;2024-02-28T05:32:30;27.60;;;19.10;;
47882;SDS011;37739;50.350;7.578;2024-02-28T05:34:59;29.30;;;21.77;;
47882;SDS011;37739;50.350;7.578;2024-02-28T05:37:25;32.53;;;24.10;;
47882;SDS011;37739;50.350;7.578;2024-02-28T05:39:50;42.07;;;29.00;;
47882;SDS011;37739;50.350;7.578;2024-02-28T05:42:20;37.23;;;25.77;;
47882;SDS011;37739;50.350;7.578;2024-02-28T05:44:51;35.63;;;25.00;;
47882;SDS011;37739;50.350;7.578;2024-02-28T05:47:16;31.40;;;21.23;;
47882;SDS011;37739;50.350;7.578;2024-02-28T05:49:42;34.77;;;24.80;;
47882;SDS011;37739;50.350;7.578;2024-02-28T05:52:12;35.20;;;25.40;;
47882;SDS011;37739;50.350;7.578;2024-02-28T05:54:38;35.80;;;24.70;;
47882;SDS011;37739;50.350;7.578;2024-02-28T05:57:03;28.27;;;20.63;;
47882;SDS011;37739;50.350;7.578;2024-02-28T05:59:31;36.60;;;25.67;;
47882;SDS011;37739;50.350;7.578;2024-02-28T06:01:59;33.50;;;23.63;;
47882;SDS011;37739;50.350;7.578;2024-02-28T06:04:24;37.90;;;25.27;;
47882;SDS011;37739;50.350;7.578;2024-02-28T06:06:52;31.90;;;22.83;;
47882;SDS011;37739;50.350;7.578;2024-02-28T06:09:17;37.47;;;26.47;;
47882;SDS011;37739;50.350;7.578;2024-02-28T06:11:44;35.47;;;23.70;;
47882;SDS011;37739;50.350;7.578;2024-02-28T06:14:10;37.93;;;27.00;;
47882;SDS011;37739;50.350;7.578;2024-02-28T06:16:38;32.10;;;24.47;;
47882;SDS011;37739;50.350;7.578;2024-02-28T06:19:03;42.40;;;29.07;;
47882;SDS011;37739;50.350;7.578;2024-02-28T06:21:28;38.43;;;23.87;;
47882;SDS011;37739;50.350;7.578;2024-02-28T06:23:54;33.17;;;24.20;;
47882;SDS011;37739;50.350;7.578;2024-02-28T06:26:22;28.93;;;21.27;;
47882;SDS011;37739;50.350;7.578;2024-02-28T06:28:50;30.50;;;22.17;;
47882;SDS011;37739;50.350;7.578;2024-02-28T06:31:16;38.33;;;26.60;;
47882;SDS011;37739;50.350;7.578;2024-02-28T06:33:42;30.73;;;23.73;;
47882;SDS011;37739;50.350;7.578;2024-02-28T06:36:08;30.37;;;22.33;;
47882;SDS011;37739;50.350;7.578;2024-02-28T06:38:34;35.07;;;24.43;;
47882;SDS011;37739;50.350;7.578;2024-02-28T06:41:02;33.73;;;23.20;;
47882;SDS011;37739;50.350;7.578;2024-02-28T06:43:34;35.73;;;24.17;;
47882;SDS011;37739;50.350;7.578;2024-02-28T06:46:02;27.77;;;19.70;;
47882;SDS011;37739;50.350;7.578;2024-02-28T06:48:30;35.10;;;25.40;;
47882;SDS011;37739;50.350;7.578;2024-02-28T06:50:57;35.30;;;24.70;;
47882;SDS011;37739;50.350;7.578;2024-02-28T06:53:23;37.27;;;25.37;;
47882;SDS011;37739;50.350;7.578;2024-02-28T06:55:48;37.83;;;25.43;;
47882;SDS011;37739;50.350;7.578;2024-02-28T06:58:14;34.67;;;24.40;;
47882;SDS011;37739;50.350;7.578;2024-02-28T07:00:44;36.43;;;23.63;;
47882;SDS011;37739;50.350;7.578;2024-02-28T07:03:13;28.67;;;20.90;;
47882;SDS011;37739;50.350;7.578;2024-02-28T07:05:41;34.93;;;25.10;;
47882;SDS011;37739;50.350;7.578;2024-02-28T07:08:06;36.67;;;25.53;;
47882;SDS011;37739;50.350;7.578;2024-02-28T07:10:35;35.00;;;24.47;;
47882;SDS011;37739;50.350;7.578;2024-02-28T07:13:01;38.43;;;25.73;;
47882;SDS011;37739;50.350;7.578;2024-02-28T07:15:27;38.20;;;26.57;;
47882;SDS011;37739;50.350;7.578;2024-02-28T07:17:57;35.83;;;24.13;;
47882;SDS011;37739;50.350;7.578;2024-02-28T07:20:24;35.00;;;25.80;;
47882;SDS011;37739;50.350;7.578;2024-02-28T07:22:50;34.63;;;25.73;;
47882;SDS011;37739;50.350;7.578;2024-02-28T07:25:15;32.40;;;25.97;;
47882;SDS011;37739;50.350;7.578;2024-02-28T07:27:42;33.93;;;23.77;;
47882;SDS011;37739;50.350;7.578;2024-02-28T07:30:10;37.87;;;25.80;;
47882;SDS011;37739;50.350;7.578;2024-02-28T07:32:35;34.77;;;24.57;;
47882;SDS011;37739;50.350;7.578;2024-02-28T07:35:02;32.83;;;24.03;;
47882;SDS011;37739;50.350;7.578;2024-02-28T07:37:27;30.00;;;20.83;;
47882;SDS011;37739;50.350;7.578;2024-02-28T07:39:55;36.53;;;22.90;;
47882;SDS011;37739;50.350;7.578;2024-02-28T07:42:22;28.97;;;22.87;;
47882;SDS011;37739;50.350;7.578;2024-02-28T07:44:55;35.60;;;25.83;;
47882;SDS011;37739;50.350;7.578;2024-02-28T07:47:23;31.13;;;22.03;;
47882;SDS011;37739;50.350;7.578;2024-02-28T07:49:50;35.70;;;25.93;;
47882;SDS011;37739;50.350;7.578;2024-02-28T07:52:19;34.20;;;24.80;;
47882;SDS011;37739;50.350;7.578;2024-02-28T07:54:45;34.30;;;25.67;;
47882;SDS011;37739;50.350;7.578;2024-02-28T07:57:12;31.83;;;23.97;;
47882;SDS011;37739;50.350;7.578;2024-02-28T07:59:41;33.40;;;24.40;;
47882;SDS011;37739;50.350;7.578;2024-02-28T08:02:07;32.37;;;22.87;;
47882;SDS011;37739;50.350;7.578;2024-02-28T08:04:37;33.20;;;24.80;;
47882;SDS011;37739;50.350;7.578;2024-02-28T08:07:03;30.50;;;22.27;;
47882;SDS011;37739;50.350;7.578;2024-02-28T08:09:29;36.57;;;25.10;;
47882;SDS011;37739;50.350;7.578;2024-02-28T08:11:57;24.93;;;18.10;;
47882;SDS011;37739;50.350;7.578;2024-02-28T08:14:24;30.17;;;22.60;;
47882;SDS011;37739;50.350;7.578;2024-02-28T08:16:49;31.17;;;23.87;;
47882;SDS011;37739;50.350;7.578;2024-02-28T08:19:17;34.43;;;23.43;;
47882;SDS011;37739;50.350;7.578;2024-02-28T08:21:45;31.10;;;22.87;;
47882;SDS011;37739;50.350;7.578;2024-02-28T08:24:10;32.97;;;24.47;;
47882;SDS011;37739;50.350;7.578;2024-02-28T08:26:35;35.87;;;25.50;;
47882;SDS011;37739;50.350;7.578;2024-02-28T08:29:04;35.73;;;24.90;;
47882;SDS011;37739;50.350;7.578;2024-02-28T08:31:29;29.30;;;22.03;;
47882;SDS011;37739;50.350;7.578;2024-02-28T08:33:54;31.87;;;22.73;;
47882;SDS011;37739;50.350;7.578;2024-02-28T08:36:20;35.17;;;24.50;;
47882;SDS011;37739;50.350;7.578;2024-02-28T08:38:48;19.40;;;14.53;;
47882;SDS011;37739;50.350;7.578;2024-02-28T08:41:16;36.60;;;22.97;;
47882;SDS011;37739;50.350;7.578;2024-02-28T08:43:44;25.40;;;20.00;;
47882;SDS011;37739;50.350;7.578;2024-02-28T08:46:13;26.00;;;19.60;;
47882;SDS011;37739;50.350;7.578;2024-02-28T08:48:41;30.70;;;21.27;;
47882;SDS011;37739;50.350;7.578;2024-02-28T08:51:12;30.70;;;21.83;;
47882;SDS011;37739;50.350;7.578;2024-02-28T08:53:37;33.60;;;23.77;;
47882;SDS011;37739;50.350;7.578;2024-02-28T08:56:07;28.60;;;20.80;;
47882;SDS011;37739;50.350;7.578;2024-02-28T08:58:32;37.07;;;25.73;;
47882;SDS011;37739;50.350;7.578;2024-02-28T09:00:57;32.17;;;23.17;;
47882;SDS011;37739;50.350;7.578;2024-02-28T09:03:23;31.10;;;23.87;;
47882;SDS011;37739;50.350;7.578;2024-02-28T09:05:53;35.10;;;25.00;;
47882;SDS011;37739;50.350;7.578;2024-02-28T09:08:18;33.30;;;24.10;;
47882;SDS011;37739;50.350;7.578;2024-02-28T09:10:43;27.30;;;19.57;;
47882;SDS011;37739;50.350;7.578;2024-02-28T09:13:09;31.03;;;22.37;;
47882;SDS011;37739;50.350;7.578;2024-02-28T09:15:35;32.10;;;24.00;;
47882;SDS011;37739;50.350;7.578;2024-02-28T09:18:02;34.97;;;25.97;;
47882;SDS011;37739;50.350;7.578;2024-02-28T09:20:28;35.43;;;26.63;;
47882;SDS011;37739;50.350;7.578;2024-02-28T09:22:53;41.00;;;28.67;;
47882;SDS011;37739;50.350;7.578;2024-02-28T09:25:18;36.70;;;26.00;;
47882;SDS011;37739;50.350;7.578;2024-02-28T09:27:48;36.80;;;26.67;;
47882;SDS011;37739;50.350;7.578;2024-02-28T09:30:14;36.30;;;26.90;;
47882;SDS011;37739;50.350;7.578;2024-02-28T09:32:39;31.83;;;21.83;;
47882;SDS011;37739;50.350;7.578;2024-02-28T09:35:04;29.83;;;22.43;;
47882;SDS011;37739;50.350;7.578;2024-02-28T09:37:31;33.83;;;23.30;;
47882;SDS011;37739;50.350;7.578;2024-02-28T09:39:58;39.57;;;27.43;;
47882;SDS011;37739;50.350;7.578;2024-02-28T09:42:24;35.37;;;26.17;;
47882;SDS011;37739;50.350;7.578;2024-02-28T09:44:52;30.83;;;21.30;;
47882;SDS011;37739;50.350;7.578;2024-02-28T09:47:17;36.80;;;24.57;;
47882;SDS011;37739;50.350;7.578;2024-02-28T09:49:45;33.57;;;24.67;;
47882;SDS011;37739;50.350;7.578;2024-02-28T09:52:15;38.20;;;27.40;;
47882;SDS011;37739;50.350;7.578;2024-02-28T09:54:42;36.97;;;25.30;;
47882;SDS011;37739;50.350;7.578;2024-02-28T09:57:09;33.53;;;24.17;;
47882;SDS011;37739;50.350;7.578;2024-02-28T09:59:39;34.87;;;24.50;;
47882;SDS011;37739;50.350;7.578;2024-02-28T10:02:10;35.70;;;25.40;;
47882;SDS011;37739;50.350;7.578;2024-02-28T10:04:41;32.10;;;22.07;;
47882;SDS011;37739;50.350;7.578;2024-02-28T10:07:13;35.03;;;27.17;;
47882;SDS011;37739;50.350;7.578;2024-02-28T10:09:38;36.17;;;24.73;;
47882;SDS011;37739;50.350;7.578;2024-02-28T10:12:07;38.67;;;26.80;;
47882;SDS011;37739;50.350;7.578;2024-02-28T10:14:37;41.20;;;27.90;;
47882;SDS011;37739;50.350;7.578;2024-02-28T10:17:05;39.30;;;28.47;;
47882;SDS011;37739;50.350;7.578;2024-02-28T10:19:33;32.10;;;24.23;;
47882;SDS011;37739;50.350;7.578;2024-02-28T10:21:58;37.37;;;27.40;;
47882;SDS011;37739;50.350;7.578;2024-02-28T10:24:24;33.83;;;23.70;;
47882;SDS011;37739;50.350;7.578;2024-02-28T10:26:50;26.83;;;19.30;;
47882;SDS011;37739;50.350;7.578;2024-02-28T10:29:23;20.33;;;15.03;;
47882;SDS011;37739;50.350;7.578;2024-02-28T10:31:50;32.40;;;23.10;;
47882;SDS011;37739;50.350;7.578;2024-02-28T10:34:16;33.30;;;23.97;;
47882;SDS011;37739;50.350;7.578;2024-02-28T10:36:45;33.40;;;25.33;;
47882;SDS011;37739;50.350;7.578;2024-02-28T10:39:13;33.77;;;24.83;;
47882;SDS011;37739;50.350;7.578;2024-02-28T10:41:41;32.83;;;22.97;;
47882;SDS011;37739;50.350;7.578;2024-02-28T10:44:11;31.80;;;24.90;;
47882;SDS011;37739;50.350;7.578;2024-02-28T10:46:37;37.57;;;24.33;;
47882;SDS011;37739;50.350;7.578;2024-02-28T10:49:03;33.77;;;24.40;;
47882;SDS011;37739;50.350;7.578;2024-02-28T10:51:29;33.00;;;24.87;;
47882;SDS011;37739;50.350;7.578;2024-02-28T10:54:11;33.30;;;24.87;;
47882;SDS011;37739;50.350;7.578;2024-02-28T10:56:39;32.80;;;24.53;;
47882;SDS011;37739;50.350;7.578;2024-02-28T10:59:06;34.23;;;24.30;;
47882;SDS011;37739;50.350;7.578;2024-02-28T11:01:34;37.23;;;26.30;;
47882;SDS011;37739;50.350;7.578;2024-02-28T11:04:02;34.33;;;24.73;;
47882;SDS011;37739;50.350;7.578;2024-02-28T11:06:29;33.17;;;25.20;;
47882;SDS011;37739;50.350;7.578;2024-02-28T11:08:54;34.83;;;26.00;;
47882;SDS011;37739;50.350;7.578;2024-02-28T11:11:22;36.43;;;27.17;;
47882;SDS011;37739;50.350;7.578;2024-02-28T11:13:55;42.23;;;29.90;;
47882;SDS011;37739;50.350;7.578;2024-02-28T11:16:28;34.90;;;25.90;;
47882;SDS011;37739;50.350;7.578;2024-02-28T11:18:54;35.83;;;27.17;;
47882;SDS011;37739;50.350;7.578;2024-02-28T11:21:22;31.80;;;24.37;;
47882;SDS011;37739;50.350;7.578;2024-02-28T11:23:49;33.70;;;25.73;;
47882;SDS011;37739;50.350;7.578;2024-02-28T11:26:15;32.87;;;23.90;;
47882;SDS011;37739;50.350;7.578;2024-02-28T11:28:43;32.83;;;24.17;;
47882;SDS011;37739;50.350;7.578;2024-02-28T11:31:11;29.10;;;23.60;;
47882;SDS011;37739;50.350;7.578;2024-02-28T11:33:38;32.53;;;25.30;;
47882;SDS011;37739;50.350;7.578;2024-02-28T11:36:04;34.90;;;26.80;;
47882;SDS011;37739;50.350;7.578;2024-02-28T11:38:34;29.70;;;23.30;;
47882;SDS011;37739;50.350;7.578;2024-02-28T11:41:05;34.40;;;24.90;;
47882;SDS011;37739;50.350;7.578;2024-02-28T11:43:31;36.10;;;27.40;;
47882;SDS011;37739;50.350;7.578;2024-02-28T11:46:02;25.20;;;20.03;;
47882;SDS011;37739;50.350;7.578;2024-02-28T11:48:38;37.17;;;28.57;;
47882;SDS011;37739;50.350;7.578;2024-02-28T11:51:04;28.27;;;24.10;;
47882;SDS011;37739;50.350;7.578;2024-02-28T11:53:29;30.67;;;25.00;;
47882;SDS011;37739;50.350;7.578;2024-02-28T11:55:55;30.93;;;24.83;;
47882;SDS011;37739;50.350;7.578;2024-02-28T11:58:25;32.43;;;24.90;;
47882;SDS011;37739;50.350;7.578;2024-02-28T12:00:50;30.60;;;24.93;;
47882;SDS011;37739;50.350;7.578;2024-02-28T12:03:20;31.80;;;24.30;;
47882;SDS011;37739;50.350;7.578;2024-02-28T12:05:49;31.17;;;24.50;;
47882;SDS011;37739;50.350;7.578;2024-02-28T12:08:17;22.80;;;18.63;;
47882;SDS011;37739;50.350;7.578;2024-02-28T12:10:46;29.30;;;21.67;;
47882;SDS011;37739;50.350;7.578;2024-02-28T12:13:17;29.17;;;23.13;;
47882;SDS011;37739;50.350;7.578;2024-02-28T12:15:43;27.47;;;22.03;;
47882;SDS011;37739;50.350;7.578;2024-02-28T12:18:11;28.90;;;23.30;;
47882;SDS011;37739;50.350;7.578;2024-02-28T12:20:38;33.67;;;24.97;;
47882;SDS011;37739;50.350;7.578;2024-02-28T12:23:04;29.93;;;23.50;;
47882;SDS011;37739;50.350;7.578;2024-02-28T12:25:30;29.67;;;24.00;;
47882;SDS011;37739;50.350;7.578;2024-02-28T12:27:58;33.43;;;25.00;;
47882;SDS011;37739;50.350;7.578;2024-02-28T12:30:26;28.10;;;24.13;;
47882;SDS011;37739;50.350;7.578;2024-02-28T12:32:51;29.70;;;25.47;;
47882;SDS011;37739;50.350;7.578;2024-02-28T12:35:19;31.80;;;24.60;;
47882;SDS011;37739;50.350;7.578;2024-02-28T12:37:46;28.80;;;24.37;;
47882;SDS011;37739;50.350;7.578;2024-02-28T12:40:14;30.90;;;25.57;;
47882;SDS011;37739;50.350;7.578;2024-02-28T12:42:44;30.13;;;24.60;;
47882;SDS011;37739;50.350;7.578;2024-02-28T12:45:09;28.53;;;23.87;;
47882;SDS011;37739;50.350;7.578;2024-02-28T12:47:37;27.33;;;23.43;;
47882;SDS011;37739;50.350;7.578;2024-02-28T12:50:03;25.43;;;21.20;;
47882;SDS011;37739;50.350;7.578;2024-02-28T12:52:29;25.83;;;22.67;;
47882;SDS011;37739;50.350;7.578;2024-02-28T12:54:54;29.23;;;24.13;;
47882;SDS011;37739;50.350;7.578;2024-02-28T12:57:19;25.33;;;21.90;;
47882;SDS011;37739;50.350;7.578;2024-02-28T12:59:45;26.57;;;21.97;;
47882;SDS011;37739;50.350;7.578;2024-02-28T13:02:12;24.00;;;21.30;;
47882;SDS011;37739;50.350;7.578;2024-02-28T13:04:41;26.10;;;21.50;;
47882;SDS011;37739;50.350;7.578;2024-02-28T13:07:11;25.37;;;22.00;;
47882;SDS011;37739;50.350;7.578;2024-02-28T13:09:36;25.47;;;22.10;;
47882;SDS011;37739;50.350;7.578;2024-02-28T13:12:03;24.07;;;21.47;;
47882;SDS011;37739;50.350;7.578;2024-02-28T13:14:31;26.27;;;22.70;;
47882;SDS011;37739;50.350;7.578;2024-02-28T13:16:59;23.73;;;21.07;;
47882;SDS011;37739;50.350;7.578;2024-02-28T13:19:24;26.17;;;21.87;;
47882;SDS011;37739;50.350;7.578;2024-02-28T13:21:54;22.73;;;18.90;;
47882;SDS011;37739;50.350;7.578;2024-02-28T13:24:19;23.17;;;20.30;;
47882;SDS011;37739;50.350;7.578;2024-02-28T13:26:45;21.30;;;17.77;;
47882;SDS011;37739;50.350;7.578;2024-02-28T13:29:10;21.07;;;17.60;;
47882;SDS011;37739;50.350;7.578;2024-02-28T13:31:35;19.10;;;16.90;;
47882;SDS011;37739;50.350;7.578;2024-02-28T13:34:01;21.13;;;18.70;;
47882;SDS011;37739;50.350;7.578;2024-02-28T13:36:28;20.93;;;17.40;;
47882;SDS011;37739;50.350;7.578;2024-02-28T13:38:55;19.10;;;15.90;;
47882;SDS011;37739;50.350;7.578;2024-02-28T13:41:23;16.20;;;14.07;;
47882;SDS011;37739;50.350;7.578;2024-02-28T13:43:48;14.13;;;12.63;;
47882;SDS011;37739;50.350;7.578;2024-02-28T13:46:14;15.33;;;13.70;;
47882;SDS011;37739;50.350;7.578;2024-02-28T13:48:44;15.63;;;13.40;;
47882;SDS011;37739;50.350;7.578;2024-02-28T13:51:12;13.03;;;11.63;;
47882;SDS011;37739;50.350;7.578;2024-02-28T13:53:38;13.80;;;11.67;;
47882;SDS011;37739;50.350;7.578;2024-02-28T13:56:05;12.10;;;10.90;;
47882;SDS011;37739;50.350;7.578;2024-02-28T13:58:31;12.00;;;10.73;;
47882;SDS011;37739;50.350;7.578;2024-02-28T14:00:57;14.27;;;12.57;;
47882;SDS011;37739;50.350;7.578;2024-02-28T14:03:22;14.03;;;12.17;;
47882;SDS011;37739;50.350;7.578;2024-02-28T14:05:50;16.97;;;13.37;;
47882;SDS011;37739;50.350;7.578;2024-02-28T14:08:18;15.40;;;13.17;;
47882;SDS011;37739;50.350;7.578;2024-02-28T14:10:43;14.93;;;13.07;;
47882;SDS011;37739;50.350;7.578;2024-02-28T14:13:09;17.30;;;14.47;;
47882;SDS011;37739;50.350;7.578;2024-02-28T14:15:37;14.37;;;12.97;;
47882;SDS011;37739;50.350;7.578;2024-02-28T14:18:02;14.93;;;13.33;;
47882;SDS011;37739;50.350;7.578;2024-02-28T14:20:28;14.90;;;12.20;;